sensor_id;sensor_type;location;lat;lon;timestamp;P1;durP1;ratioP1;P2;durP2;ratioP2
73515;SDS011;61763;51.416;5.442;2024-03-23T00:53:16;11.63;;;2.90;;
73515;SDS011;61763;51.416;5.442;2024-03-23T00:55:42;9.50;;;2.25;;
73515;SDS011;61763;51.416;5.442;2024-03-23T00:58:08;7.57;;;2.55;;
73515;SDS011;61763;51.416;5.442;2024-03-23T01:00:34;14.45;;;2.50;;
73515;SDS011;61763;51.416;5.442;2024-03-23T01:02:59;13.50;;;2.83;;
73515;SDS011;61763;51.416;5.442;2024-03-23T01:05:25;14.90;;;2.03;;
73515;SDS011;61763;51.416;5.442;2024-03-23T01:07:50;14.18;;;2.55;;
73515;SDS011;61763;51.416;5.442;2024-03-23T01:10:16;10.07;;;2.65;;
73515;SDS011;61763;51.416;5.442;2024-03-23T01:12:41;14.88;;;3.30;;
73515;SDS011;61763;51.416;5.442;2024-03-23T01:15:07;12.18;;;2.40;;
73515;SDS011;61763;51.416;5.442;2024-03-23T01:17:33;16.98;;;2.33;;
73515;SDS011;61763;51.416;5.442;2024-03-23T01:19:58;8.30;;;2.30;;
73515;SDS011;61763;51.416;5.442;2024-03-23T01:22:24;7.13;;;1.73;;
73515;SDS011;61763;51.416;5.442;2024-03-23T01:24:49;8.75;;;2.20;;
73515;SDS011;61763;51.416;5.442;2024-03-23T01:27:14;10.38;;;2.63;;
73515;SDS011;61763;51.416;5.442;2024-03-23T01:29:40;8.05;;;2.08;;
73515;SDS011;61763;51.416;5.442;2024-03-23T01:32:05;13.70;;;2.63;;
73515;SDS011;61763;51.416;5.442;2024-03-23T01:34:32;11.35;;;2.40;;
73515;SDS011;61763;51.416;5.442;2024-03-23T01:36:58;11.55;;;2.38;;
73515;SDS011;61763;51.416;5.442;2024-03-23T01:39:24;4.18;;;1.90;;
73515;SDS011;61763;51.416;5.442;2024-03-23T01:41:50;10.65;;;2.20;;
73515;SDS011;61763;51.416;5.442;2024-03-23T01:44:16;12.57;;;2.50;;
73515;SDS011;61763;51.416;5.442;2024-03-23T01:46:42;9.98;;;2.78;;
73515;SDS011;61763;51.416;5.442;2024-03-23T01:49:08;10.60;;;1.90;;
73515;SDS011;61763;51.416;5.442;2024-03-23T01:51:36;7.97;;;2.03;;
73515;SDS011;61763;51.416;5.442;2024-03-23T01:54:02;9.38;;;1.90;;
73515;SDS011;61763;51.416;5.442;2024-03-23T01:56:32;10.55;;;2.17;;
73515;SDS011;61763;51.416;5.442;2024-03-23T01:59:01;4.85;;;1.38;;
73515;SDS011;61763;51.416;5.442;2024-03-23T02:01:27;10.32;;;2.22;;
73515;SDS011;61763;51.416;5.442;2024-03-23T02:03:52;11.35;;;2.38;;
73515;SDS011;61763;51.416;5.442;2024-03-23T02:06:18;11.75;;;2.20;;
73515;SDS011;61763;51.416;5.442;2024-03-23T02:08:43;11.45;;;2.55;;
73515;SDS011;61763;51.416;5.442;2024-03-23T02:11:09;10.40;;;1.98;;
73515;SDS011;61763;51.416;5.442;2024-03-23T02:13:34;13.45;;;2.78;;
73515;SDS011;61763;51.416;5.442;2024-03-23T02:16:00;9.20;;;2.33;;
73515;SDS011;61763;51.416;5.442;2024-03-23T02:18:25;8.73;;;2.20;;
73515;SDS011;61763;51.416;5.442;2024-03-23T02:20:50;13.10;;;3.42;;
73515;SDS011;61763;51.416;5.442;2024-03-23T02:23:16;12.45;;;2.30;;
73515;SDS011;61763;51.416;5.442;2024-03-23T02:25:43;7.68;;;2.47;;
73515;SDS011;61763;51.416;5.442;2024-03-23T02:28:09;7.65;;;2.67;;
73515;SDS011;61763;51.416;5.442;2024-03-23T02:30:34;17.75;;;3.10;;
73515;SDS011;61763;51.416;5.442;2024-03-23T02:32:59;7.95;;;2.80;;
73515;SDS011;61763;51.416;5.442;2024-03-23T02:35:25;9.07;;;2.50;;
73515;SDS011;61763;51.416;5.442;2024-03-23T02:37:50;11.02;;;2.70;;
73515;SDS011;61763;51.416;5.442;2024-03-23T02:40:16;10.43;;;2.30;;
73515;SDS011;61763;51.416;5.442;2024-03-23T02:42:42;13.15;;;2.08;;
73515;SDS011;61763;51.416;5.442;2024-03-23T02:45:08;7.90;;;2.88;;
73515;SDS011;61763;51.416;5.442;2024-03-23T02:47:33;11.90;;;2.88;;
73515;SDS011;61763;51.416;5.442;2024-03-23T02:49:58;10.10;;;2.78;;
73515;SDS011;61763;51.416;5.442;2024-03-23T02:52:24;7.72;;;2.55;;
73515;SDS011;61763;51.416;5.442;2024-03-23T02:54:49;10.70;;;2.38;;
73515;SDS011;61763;51.416;5.442;2024-03-23T02:57:14;8.38;;;2.13;;
73515;SDS011;61763;51.416;5.442;2024-03-23T02:59:40;8.43;;;1.67;;
73515;SDS011;61763;51.416;5.442;2024-03-23T03:02:06;12.05;;;2.58;;
73515;SDS011;61763;51.416;5.442;2024-03-23T03:04:31;6.00;;;2.17;;
73515;SDS011;61763;51.416;5.442;2024-03-23T03:06:57;12.20;;;2.08;;
73515;SDS011;61763;51.416;5.442;2024-03-23T03:09:22;9.40;;;2.30;;
73515;SDS011;61763;51.416;5.442;2024-03-23T03:11:48;11.65;;;2.38;;
73515;SDS011;61763;51.416;5.442;2024-03-23T03:14:13;8.85;;;2.65;;
73515;SDS011;61763;51.416;5.442;2024-03-23T03:16:39;5.95;;;1.27;;
73515;SDS011;61763;51.416;5.442;2024-03-23T03:19:04;11.15;;;2.00;;
73515;SDS011;61763;51.416;5.442;2024-03-23T03:21:31;10.23;;;1.85;;
73515;SDS011;61763;51.416;5.442;2024-03-23T03:23:57;7.50;;;2.17;;
73515;SDS011;61763;51.416;5.442;2024-03-23T03:26:22;6.28;;;1.65;;
73515;SDS011;61763;51.416;5.442;2024-03-23T03:28:48;8.45;;;2.22;;
73515;SDS011;61763;51.416;5.442;2024-03-23T03:31:16;10.70;;;2.15;;
73515;SDS011;61763;51.416;5.442;2024-03-23T03:33:43;6.70;;;2.08;;
73515;SDS011;61763;51.416;5.442;2024-03-23T03:36:08;10.80;;;2.78;;
73515;SDS011;61763;51.416;5.442;2024-03-23T03:38:34;11.38;;;2.08;;
73515;SDS011;61763;51.416;5.442;2024-03-23T03:41:02;8.77;;;1.70;;
73515;SDS011;61763;51.416;5.442;2024-03-23T03:43:28;7.03;;;1.92;;
73515;SDS011;61763;51.416;5.442;2024-03-23T03:45:53;8.25;;;2.42;;
73515;SDS011;61763;51.416;5.442;2024-03-23T03:48:19;7.63;;;1.75;;
73515;SDS011;61763;51.416;5.442;2024-03-23T03:50:45;10.15;;;2.33;;
73515;SDS011;61763;51.416;5.442;2024-03-23T03:53:10;8.05;;;2.17;;
73515;SDS011;61763;51.416;5.442;2024-03-23T03:55:36;9.15;;;2.17;;
73515;SDS011;61763;51.416;5.442;2024-03-23T03:58:02;8.25;;;1.95;;
73515;SDS011;61763;51.416;5.442;2024-03-23T04:00:27;9.02;;;2.42;;
73515;SDS011;61763;51.416;5.442;2024-03-23T04:02:53;7.15;;;2.22;;
73515;SDS011;61763;51.416;5.442;2024-03-23T04:05:18;7.63;;;2.15;;
73515;SDS011;61763;51.416;5.442;2024-03-23T04:07:44;10.02;;;2.35;;
73515;SDS011;61763;51.416;5.442;2024-03-23T04:10:10;8.95;;;2.38;;
73515;SDS011;61763;51.416;5.442;2024-03-23T04:12:36;8.43;;;2.28;;
73515;SDS011;61763;51.416;5.442;2024-03-23T04:15:01;7.75;;;1.95;;
73515;SDS011;61763;51.416;5.442;2024-03-23T04:17:29;8.05;;;2.08;;
73515;SDS011;61763;51.416;5.442;2024-03-23T04:20:00;7.43;;;2.33;;
73515;SDS011;61763;51.416;5.442;2024-03-23T04:22:26;12.90;;;4.10;;
73515;SDS011;61763;51.416;5.442;2024-03-23T04:24:56;12.75;;;2.90;;
73515;SDS011;61763;51.416;5.442;2024-03-23T04:27:22;11.23;;;2.53;;
73515;SDS011;61763;51.416;5.442;2024-03-23T04:29:51;9.77;;;2.67;;
73515;SDS011;61763;51.416;5.442;2024-03-23T04:32:18;14.98;;;3.22;;
73515;SDS011;61763;51.416;5.442;2024-03-23T04:34:44;11.32;;;3.72;;
73515;SDS011;61763;51.416;5.442;2024-03-23T04:37:10;15.88;;;4.75;;
73515;SDS011;61763;51.416;5.442;2024-03-23T04:39:36;17.65;;;4.07;;
73515;SDS011;61763;51.416;5.442;2024-03-23T04:42:02;17.45;;;3.88;;
73515;SDS011;61763;51.416;5.442;2024-03-23T04:44:28;21.63;;;5.07;;
73515;SDS011;61763;51.416;5.442;2024-03-23T04:46:54;26.20;;;4.43;;
73515;SDS011;61763;51.416;5.442;2024-03-23T04:49:19;18.63;;;5.22;;
73515;SDS011;61763;51.416;5.442;2024-03-23T04:51:44;14.80;;;4.85;;
73515;SDS011;61763;51.416;5.442;2024-03-23T04:54:13;20.60;;;4.38;;
73515;SDS011;61763;51.416;5.442;2024-03-23T04:56:39;23.00;;;5.68;;
73515;SDS011;61763;51.416;5.442;2024-03-23T04:59:04;23.63;;;5.03;;
73515;SDS011;61763;51.416;5.442;2024-03-23T05:01:30;20.58;;;4.47;;
73515;SDS011;61763;51.416;5.442;2024-03-23T05:03:58;23.73;;;5.60;;
73515;SDS011;61763;51.416;5.442;2024-03-23T05:06:24;19.40;;;5.95;;
73515;SDS011;61763;51.416;5.442;2024-03-23T05:08:50;17.48;;;5.97;;
73515;SDS011;61763;51.416;5.442;2024-03-23T05:11:16;24.90;;;6.43;;
73515;SDS011;61763;51.416;5.442;2024-03-23T05:13:42;29.83;;;6.65;;
73515;SDS011;61763;51.416;5.442;2024-03-23T05:16:07;18.80;;;5.43;;
73515;SDS011;61763;51.416;5.442;2024-03-23T05:18:33;16.60;;;5.10;;
73515;SDS011;61763;51.416;5.442;2024-03-23T05:20:59;19.63;;;5.78;;
73515;SDS011;61763;51.416;5.442;2024-03-23T05:23:25;22.40;;;5.95;;
73515;SDS011;61763;51.416;5.442;2024-03-23T05:25:51;25.42;;;5.65;;
73515;SDS011;61763;51.416;5.442;2024-03-23T05:28:19;20.30;;;4.50;;
73515;SDS011;61763;51.416;5.442;2024-03-23T05:30:52;20.80;;;5.10;;
73515;SDS011;61763;51.416;5.442;2024-03-23T05:33:18;26.27;;;6.07;;
73515;SDS011;61763;51.416;5.442;2024-03-23T05:35:45;18.30;;;4.72;;
73515;SDS011;61763;51.416;5.442;2024-03-23T05:38:11;21.95;;;4.82;;
73515;SDS011;61763;51.416;5.442;2024-03-23T05:40:36;25.38;;;4.85;;
73515;SDS011;61763;51.416;5.442;2024-03-23T05:43:05;25.23;;;5.03;;
73515;SDS011;61763;51.416;5.442;2024-03-23T05:45:31;22.65;;;5.68;;
73515;SDS011;61763;51.416;5.442;2024-03-23T05:47:56;22.45;;;5.40;;
73515;SDS011;61763;51.416;5.442;2024-03-23T05:50:24;22.55;;;5.13;;
73515;SDS011;61763;51.416;5.442;2024-03-23T05:52:50;19.60;;;4.10;;
73515;SDS011;61763;51.416;5.442;2024-03-23T05:55:15;22.33;;;5.47;;
73515;SDS011;61763;51.416;5.442;2024-03-23T05:57:41;18.23;;;4.90;;
73515;SDS011;61763;51.416;5.442;2024-03-23T06:00:06;24.60;;;5.25;;
73515;SDS011;61763;51.416;5.442;2024-03-23T06:02:44;19.42;;;4.72;;
73515;SDS011;61763;51.416;5.442;2024-03-23T06:05:10;17.45;;;3.80;;
73515;SDS011;61763;51.416;5.442;2024-03-23T06:07:36;24.70;;;4.18;;
73515;SDS011;61763;51.416;5.442;2024-03-23T06:10:01;21.33;;;4.72;;
73515;SDS011;61763;51.416;5.442;2024-03-23T06:12:26;18.55;;;4.10;;
73515;SDS011;61763;51.416;5.442;2024-03-23T06:14:52;17.90;;;5.40;;
73515;SDS011;61763;51.416;5.442;2024-03-23T06:17:17;10.63;;;4.15;;
73515;SDS011;61763;51.416;5.442;2024-03-23T06:19:42;24.63;;;4.95;;
73515;SDS011;61763;51.416;5.442;2024-03-23T06:22:08;18.85;;;4.68;;
73515;SDS011;61763;51.416;5.442;2024-03-23T06:24:33;17.73;;;5.00;;
73515;SDS011;61763;51.416;5.442;2024-03-23T06:26:58;17.33;;;4.38;;
73515;SDS011;61763;51.416;5.442;2024-03-23T06:29:24;16.17;;;5.17;;
73515;SDS011;61763;51.416;5.442;2024-03-23T06:31:55;18.77;;;4.93;;
73515;SDS011;61763;51.416;5.442;2024-03-23T06:34:20;19.30;;;5.25;;
73515;SDS011;61763;51.416;5.442;2024-03-23T06:36:48;17.40;;;4.97;;
73515;SDS011;61763;51.416;5.442;2024-03-23T06:39:14;17.35;;;5.03;;
73515;SDS011;61763;51.416;5.442;2024-03-23T06:41:58;18.77;;;5.03;;
73515;SDS011;61763;51.416;5.442;2024-03-23T06:44:24;13.23;;;5.10;;
73515;SDS011;61763;51.416;5.442;2024-03-23T06:46:49;13.60;;;5.27;;
73515;SDS011;61763;51.416;5.442;2024-03-23T06:49:14;17.38;;;4.82;;
73515;SDS011;61763;51.416;5.442;2024-03-23T06:51:40;11.93;;;4.43;;
73515;SDS011;61763;51.416;5.442;2024-03-23T06:54:06;8.63;;;3.03;;
73515;SDS011;61763;51.416;5.442;2024-03-23T06:56:31;14.68;;;3.10;;
73515;SDS011;61763;51.416;5.442;2024-03-23T06:58:57;14.15;;;3.55;;
73515;SDS011;61763;51.416;5.442;2024-03-23T07:01:23;10.20;;;3.13;;
73515;SDS011;61763;51.416;5.442;2024-03-23T07:03:49;8.48;;;2.80;;
73515;SDS011;61763;51.416;5.442;2024-03-23T07:06:14;17.50;;;3.13;;
73515;SDS011;61763;51.416;5.442;2024-03-23T07:08:39;13.00;;;3.28;;
73515;SDS011;61763;51.416;5.442;2024-03-23T07:11:05;9.68;;;2.58;;
73515;SDS011;61763;51.416;5.442;2024-03-23T07:13:30;12.82;;;3.33;;
73515;SDS011;61763;51.416;5.442;2024-03-23T07:15:56;15.25;;;2.85;;
73515;SDS011;61763;51.416;5.442;2024-03-23T07:18:22;8.77;;;3.22;;
73515;SDS011;61763;51.416;5.442;2024-03-23T07:20:57;8.18;;;2.70;;
73515;SDS011;61763;51.416;5.442;2024-03-23T07:23:23;9.43;;;3.22;;
73515;SDS011;61763;51.416;5.442;2024-03-23T07:25:56;16.27;;;2.05;;
73515;SDS011;61763;51.416;5.442;2024-03-23T07:28:25;14.38;;;3.03;;
73515;SDS011;61763;51.416;5.442;2024-03-23T07:33:45;12.35;;;2.85;;
73515;SDS011;61763;51.416;5.442;2024-03-23T07:36:11;7.45;;;1.85;;
73515;SDS011;61763;51.416;5.442;2024-03-23T07:38:37;10.98;;;2.67;;
73515;SDS011;61763;51.416;5.442;2024-03-23T07:41:05;12.50;;;2.25;;
73515;SDS011;61763;51.416;5.442;2024-03-23T07:43:31;12.10;;;2.00;;
73515;SDS011;61763;51.416;5.442;2024-03-23T07:45:57;13.32;;;3.20;;
73515;SDS011;61763;51.416;5.442;2024-03-23T07:48:23;15.18;;;1.92;;
73515;SDS011;61763;51.416;5.442;2024-03-23T07:53:47;6.63;;;1.75;;
73515;SDS011;61763;51.416;5.442;2024-03-23T07:56:14;6.82;;;1.45;;
73515;SDS011;61763;51.416;5.442;2024-03-23T07:58:40;12.25;;;1.55;;
73515;SDS011;61763;51.416;5.442;2024-03-23T08:01:07;7.10;;;1.27;;
73515;SDS011;61763;51.416;5.442;2024-03-23T08:03:34;8.25;;;1.27;;
73515;SDS011;61763;51.416;5.442;2024-03-23T08:08:37;5.65;;;1.10;;
73515;SDS011;61763;51.416;5.442;2024-03-23T08:11:03;9.93;;;1.95;;
73515;SDS011;61763;51.416;5.442;2024-03-23T08:13:31;7.57;;;2.00;;
73515;SDS011;61763;51.416;5.442;2024-03-23T08:15:58;8.75;;;1.83;;
73515;SDS011;61763;51.416;5.442;2024-03-23T08:18:24;9.48;;;1.80;;
73515;SDS011;61763;51.416;5.442;2024-03-23T08:20:58;10.48;;;2.03;;
73515;SDS011;61763;51.416;5.442;2024-03-23T08:23:27;7.53;;;1.42;;
73515;SDS011;61763;51.416;5.442;2024-03-23T08:26:03;8.88;;;2.38;;
73515;SDS011;61763;51.416;5.442;2024-03-23T08:28:32;4.30;;;1.08;;
73515;SDS011;61763;51.416;5.442;2024-03-23T08:31:00;8.40;;;1.85;;
73515;SDS011;61763;51.416;5.442;2024-03-23T08:33:28;15.52;;;1.60;;
73515;SDS011;61763;51.416;5.442;2024-03-23T08:35:57;6.90;;;1.73;;
73515;SDS011;61763;51.416;5.442;2024-03-23T08:38:24;10.68;;;1.42;;
73515;SDS011;61763;51.416;5.442;2024-03-23T08:41:00;9.20;;;1.75;;
73515;SDS011;61763;51.416;5.442;2024-03-23T08:43:43;9.43;;;1.23;;
73515;SDS011;61763;51.416;5.442;2024-03-23T08:46:13;5.75;;;0.75;;
73515;SDS011;61763;51.416;5.442;2024-03-23T08:51:10;3.47;;;0.80;;
73515;SDS011;61763;51.416;5.442;2024-03-23T08:53:37;6.95;;;0.88;;
73515;SDS011;61763;51.416;5.442;2024-03-23T08:56:03;9.25;;;1.20;;
73515;SDS011;61763;51.416;5.442;2024-03-23T08:58:30;6.65;;;1.20;;
73515;SDS011;61763;51.416;5.442;2024-03-23T09:00:56;6.13;;;0.70;;
73515;SDS011;61763;51.416;5.442;2024-03-23T09:03:28;6.05;;;2.08;;
73515;SDS011;61763;51.416;5.442;2024-03-23T09:05:53;8.02;;;1.33;;
73515;SDS011;61763;51.416;5.442;2024-03-23T09:08:20;8.65;;;1.65;;
73515;SDS011;61763;51.416;5.442;2024-03-23T09:10:46;5.72;;;0.57;;
73515;SDS011;61763;51.416;5.442;2024-03-23T09:13:13;3.13;;;0.65;;
73515;SDS011;61763;51.416;5.442;2024-03-23T09:15:45;4.28;;;0.52;;
73515;SDS011;61763;51.416;5.442;2024-03-23T09:18:11;3.50;;;0.43;;
73515;SDS011;61763;51.416;5.442;2024-03-23T09:20:37;2.67;;;0.15;;
73515;SDS011;61763;51.416;5.442;2024-03-23T09:23:02;1.40;;;0.25;;
73515;SDS011;61763;51.416;5.442;2024-03-23T09:25:29;3.90;;;0.30;;
73515;SDS011;61763;51.416;5.442;2024-03-23T09:27:54;6.40;;;1.23;;
73515;SDS011;61763;51.416;5.442;2024-03-23T09:30:19;1.83;;;0.60;;
73515;SDS011;61763;51.416;5.442;2024-03-23T09:32:45;3.75;;;0.65;;
73515;SDS011;61763;51.416;5.442;2024-03-23T09:35:11;1.98;;;0.32;;
73515;SDS011;61763;51.416;5.442;2024-03-23T09:37:37;1.75;;;0.32;;
73515;SDS011;61763;51.416;5.442;2024-03-23T09:40:05;5.43;;;0.40;;
73515;SDS011;61763;51.416;5.442;2024-03-23T09:42:32;5.30;;;0.63;;
73515;SDS011;61763;51.416;5.442;2024-03-23T09:44:58;5.03;;;0.60;;
73515;SDS011;61763;51.416;5.442;2024-03-23T09:47:25;4.55;;;0.30;;
73515;SDS011;61763;51.416;5.442;2024-03-23T09:49:50;6.68;;;0.68;;
73515;SDS011;61763;51.416;5.442;2024-03-23T09:52:16;5.10;;;0.75;;
73515;SDS011;61763;51.416;5.442;2024-03-23T09:54:42;5.28;;;0.90;;
73515;SDS011;61763;51.416;5.442;2024-03-23T09:57:07;5.85;;;0.68;;
73515;SDS011;61763;51.416;5.442;2024-03-23T09:59:33;5.80;;;0.60;;
73515;SDS011;61763;51.416;5.442;2024-03-23T10:01:59;5.90;;;0.98;;
73515;SDS011;61763;51.416;5.442;2024-03-23T10:04:35;8.50;;;0.75;;
73515;SDS011;61763;51.416;5.442;2024-03-23T10:07:14;5.57;;;0.95;;
73515;SDS011;61763;51.416;5.442;2024-03-23T10:09:42;3.97;;;0.60;;
73515;SDS011;61763;51.416;5.442;2024-03-23T10:12:08;4.60;;;0.20;;
73515;SDS011;61763;51.416;5.442;2024-03-23T10:14:38;3.80;;;0.95;;
73515;SDS011;61763;51.416;5.442;2024-03-23T10:17:14;3.20;;;0.25;;
73515;SDS011;61763;51.416;5.442;2024-03-23T10:22:14;1.20;;;0.50;;
73515;SDS011;61763;51.416;5.442;2024-03-23T10:24:43;5.50;;;1.15;;
73515;SDS011;61763;51.416;5.442;2024-03-23T10:27:08;7.32;;;0.88;;
73515;SDS011;61763;51.416;5.442;2024-03-23T10:29:34;6.20;;;0.63;;
73515;SDS011;61763;51.416;5.442;2024-03-23T10:32:09;4.82;;;1.33;;
73515;SDS011;61763;51.416;5.442;2024-03-23T10:34:36;1.60;;;0.30;;
73515;SDS011;61763;51.416;5.442;2024-03-23T10:37:02;3.38;;;0.30;;
73515;SDS011;61763;51.416;5.442;2024-03-23T10:39:35;1.10;;;0.40;;
73515;SDS011;61763;51.416;5.442;2024-03-23T10:42:02;5.47;;;0.50;;
73515;SDS011;61763;51.416;5.442;2024-03-23T10:44:32;5.07;;;1.30;;
73515;SDS011;61763;51.416;5.442;2024-03-23T10:46:58;5.38;;;0.77;;
73515;SDS011;61763;51.416;5.442;2024-03-23T10:49:26;4.28;;;1.63;;
73515;SDS011;61763;51.416;5.442;2024-03-23T10:51:56;8.13;;;0.88;;
73515;SDS011;61763;51.416;5.442;2024-03-23T10:54:22;5.40;;;0.80;;
73515;SDS011;61763;51.416;5.442;2024-03-23T10:56:49;7.28;;;1.05;;
73515;SDS011;61763;51.416;5.442;2024-03-23T10:59:36;6.38;;;0.57;;
73515;SDS011;61763;51.416;5.442;2024-03-23T11:02:03;3.22;;;0.63;;
73515;SDS011;61763;51.416;5.442;2024-03-23T11:04:29;9.02;;;1.00;;
73515;SDS011;61763;51.416;5.442;2024-03-23T11:07:28;4.65;;;1.25;;
73515;SDS011;61763;51.416;5.442;2024-03-23T11:09:49;7.57;;;1.08;;
73515;SDS011;61763;51.416;5.442;2024-03-23T11:14:47;6.88;;;0.70;;
73515;SDS011;61763;51.416;5.442;2024-03-23T11:17:17;6.97;;;0.77;;
73515;SDS011;61763;51.416;5.442;2024-03-23T11:19:43;11.68;;;0.77;;
73515;SDS011;61763;51.416;5.442;2024-03-23T11:22:09;7.93;;;1.08;;
73515;SDS011;61763;51.416;5.442;2024-03-23T11:24:34;2.83;;;0.75;;
73515;SDS011;61763;51.416;5.442;2024-03-23T11:27:00;4.65;;;0.40;;
73515;SDS011;61763;51.416;5.442;2024-03-23T11:29:29;4.43;;;1.33;;
73515;SDS011;61763;51.416;5.442;2024-03-23T11:31:55;9.77;;;1.15;;
73515;SDS011;61763;51.416;5.442;2024-03-23T11:34:21;4.93;;;0.30;;
73515;SDS011;61763;51.416;5.442;2024-03-23T11:36:47;3.67;;;0.22;;
73515;SDS011;61763;51.416;5.442;2024-03-23T11:39:14;1.63;;;0.38;;
73515;SDS011;61763;51.416;5.442;2024-03-23T11:44:17;6.72;;;0.70;;
73515;SDS011;61763;51.416;5.442;2024-03-23T11:46:44;1.38;;;0.22;;
73515;SDS011;61763;51.416;5.442;2024-03-23T11:51:51;2.92;;;0.57;;
73515;SDS011;61763;51.416;5.442;2024-03-23T11:54:25;4.97;;;0.77;;
73515;SDS011;61763;51.416;5.442;2024-03-23T11:56:57;1.88;;;0.32;;
73515;SDS011;61763;51.416;5.442;2024-03-23T11:59:36;3.28;;;0.10;;
73515;SDS011;61763;51.416;5.442;2024-03-23T12:02:09;3.03;;;0.30;;
73515;SDS011;61763;51.416;5.442;2024-03-23T12:04:40;3.58;;;0.20;;
73515;SDS011;61763;51.416;5.442;2024-03-23T12:07:21;2.17;;;0.65;;
73515;SDS011;61763;51.416;5.442;2024-03-23T12:09:47;1.60;;;0.30;;
73515;SDS011;61763;51.416;5.442;2024-03-23T12:12:28;3.53;;;0.20;;
73515;SDS011;61763;51.416;5.442;2024-03-23T12:15:04;3.00;;;0.60;;
73515;SDS011;61763;51.416;5.442;2024-03-23T12:17:30;2.22;;;0.28;;
73515;SDS011;61763;51.416;5.442;2024-03-23T12:19:56;2.65;;;0.30;;
73515;SDS011;61763;51.416;5.442;2024-03-23T12:22:22;5.03;;;0.57;;
73515;SDS011;61763;51.416;5.442;2024-03-23T12:24:49;4.55;;;0.63;;
73515;SDS011;61763;51.416;5.442;2024-03-23T12:27:14;4.05;;;1.02;;
73515;SDS011;61763;51.416;5.442;2024-03-23T12:29:40;2.15;;;0.50;;
73515;SDS011;61763;51.416;5.442;2024-03-23T12:32:11;3.13;;;0.73;;
73515;SDS011;61763;51.416;5.442;2024-03-23T12:34:36;3.65;;;0.73;;
73515;SDS011;61763;51.416;5.442;2024-03-23T12:37:02;4.68;;;0.85;;
73515;SDS011;61763;51.416;5.442;2024-03-23T12:39:27;2.75;;;0.57;;
73515;SDS011;61763;51.416;5.442;2024-03-23T12:41:53;1.92;;;0.40;;
73515;SDS011;61763;51.416;5.442;2024-03-23T12:44:18;3.78;;;0.50;;
73515;SDS011;61763;51.416;5.442;2024-03-23T12:46:44;1.88;;;0.10;;
73515;SDS011;61763;51.416;5.442;2024-03-23T12:49:10;0.77;;;0.30;;
73515;SDS011;61763;51.416;5.442;2024-03-23T12:51:36;1.27;;;0.30;;
73515;SDS011;61763;51.416;5.442;2024-03-23T12:54:01;0.68;;;0.30;;
73515;SDS011;61763;51.416;5.442;2024-03-23T12:56:26;0.70;;;0.30;;
73515;SDS011;61763;51.416;5.442;2024-03-23T12:58:55;0.57;;;0.35;;
73515;SDS011;61763;51.416;5.442;2024-03-23T13:01:22;0.50;;;0.32;;
73515;SDS011;61763;51.416;5.442;2024-03-23T13:03:49;0.75;;;0.40;;
73515;SDS011;61763;51.416;5.442;2024-03-23T13:06:16;0.70;;;0.28;;
73515;SDS011;61763;51.416;5.442;2024-03-23T13:11:09;1.55;;;0.32;;
73515;SDS011;61763;51.416;5.442;2024-03-23T13:13:35;1.48;;;0.17;;
73515;SDS011;61763;51.416;5.442;2024-03-23T13:16:01;1.30;;;0.40;;
73515;SDS011;61763;51.416;5.442;2024-03-23T13:18:28;5.65;;;0.40;;
73515;SDS011;61763;51.416;5.442;2024-03-23T13:20:54;1.73;;;0.25;;
73515;SDS011;61763;51.416;5.442;2024-03-23T13:23:20;3.53;;;0.10;;
73515;SDS011;61763;51.416;5.442;2024-03-23T13:25:55;1.77;;;0.30;;
73515;SDS011;61763;51.416;5.442;2024-03-23T13:28:21;3.47;;;0.22;;
73515;SDS011;61763;51.416;5.442;2024-03-23T13:30:53;2.30;;;0.50;;
73515;SDS011;61763;51.416;5.442;2024-03-23T13:33:19;5.22;;;0.55;;
73515;SDS011;61763;51.416;5.442;2024-03-23T13:35:49;4.28;;;0.20;;
73515;SDS011;61763;51.416;5.442;2024-03-23T13:38:17;2.40;;;0.50;;
73515;SDS011;61763;51.416;5.442;2024-03-23T13:40:56;1.48;;;0.20;;
73515;SDS011;61763;51.416;5.442;2024-03-23T13:43:22;0.95;;;0.10;;
73515;SDS011;61763;51.416;5.442;2024-03-23T13:45:49;1.10;;;0.28;;
73515;SDS011;61763;51.416;5.442;2024-03-23T13:48:19;1.95;;;0.10;;
73515;SDS011;61763;51.416;5.442;2024-03-23T13:50:46;4.55;;;0.82;;
73515;SDS011;61763;51.416;5.442;2024-03-23T13:53:13;5.28;;;0.60;;
73515;SDS011;61763;51.416;5.442;2024-03-23T13:55:45;3.45;;;0.30;;
73515;SDS011;61763;51.416;5.442;2024-03-23T13:58:14;2.65;;;0.70;;
73515;SDS011;61763;51.416;5.442;2024-03-23T14:00:40;6.72;;;0.68;;
73515;SDS011;61763;51.416;5.442;2024-03-23T14:03:07;6.50;;;0.90;;
73515;SDS011;61763;51.416;5.442;2024-03-23T14:05:33;4.07;;;0.40;;
73515;SDS011;61763;51.416;5.442;2024-03-23T14:07:58;3.40;;;0.38;;
73515;SDS011;61763;51.416;5.442;2024-03-23T14:10:23;6.72;;;1.42;;
73515;SDS011;61763;51.416;5.442;2024-03-23T14:12:49;9.68;;;0.85;;
73515;SDS011;61763;51.416;5.442;2024-03-23T14:15:14;2.75;;;0.50;;
73515;SDS011;61763;51.416;5.442;2024-03-23T14:17:39;4.20;;;0.43;;
73515;SDS011;61763;51.416;5.442;2024-03-23T14:20:05;3.45;;;0.60;;
73515;SDS011;61763;51.416;5.442;2024-03-23T14:22:31;4.07;;;0.90;;
73515;SDS011;61763;51.416;5.442;2024-03-23T14:24:57;5.45;;;0.60;;
73515;SDS011;61763;51.416;5.442;2024-03-23T14:27:23;3.58;;;0.40;;
73515;SDS011;61763;51.416;5.442;2024-03-23T14:29:49;3.72;;;0.82;;
73515;SDS011;61763;51.416;5.442;2024-03-23T14:32:14;3.00;;;0.65;;
73515;SDS011;61763;51.416;5.442;2024-03-23T14:34:40;3.42;;;0.73;;
73515;SDS011;61763;51.416;5.442;2024-03-23T14:37:06;5.10;;;0.75;;
73515;SDS011;61763;51.416;5.442;2024-03-23T14:39:31;2.50;;;0.32;;
73515;SDS011;61763;51.416;5.442;2024-03-23T14:41:59;2.88;;;0.93;;
73515;SDS011;61763;51.416;5.442;2024-03-23T14:44:25;2.15;;;0.20;;
73515;SDS011;61763;51.416;5.442;2024-03-23T14:46:50;3.42;;;0.50;;
73515;SDS011;61763;51.416;5.442;2024-03-23T14:49:15;3.72;;;0.60;;
73515;SDS011;61763;51.416;5.442;2024-03-23T14:51:44;3.28;;;0.32;;
73515;SDS011;61763;51.416;5.442;2024-03-23T14:54:10;2.30;;;0.65;;
73515;SDS011;61763;51.416;5.442;2024-03-23T14:56:36;6.15;;;1.05;;
73515;SDS011;61763;51.416;5.442;2024-03-23T14:59:02;3.28;;;0.50;;
73515;SDS011;61763;51.416;5.442;2024-03-23T15:01:28;3.25;;;0.30;;
73515;SDS011;61763;51.416;5.442;2024-03-23T15:03:53;2.15;;;0.47;;
73515;SDS011;61763;51.416;5.442;2024-03-23T15:06:18;4.30;;;1.10;;
73515;SDS011;61763;51.416;5.442;2024-03-23T15:08:44;5.03;;;1.15;;
73515;SDS011;61763;51.416;5.442;2024-03-23T15:11:09;1.80;;;0.60;;
73515;SDS011;61763;51.416;5.442;2024-03-23T15:13:35;4.05;;;0.70;;
73515;SDS011;61763;51.416;5.442;2024-03-23T15:16:01;3.67;;;0.77;;
73515;SDS011;61763;51.416;5.442;2024-03-23T15:18:30;4.50;;;0.88;;
73515;SDS011;61763;51.416;5.442;2024-03-23T15:20:58;6.15;;;0.55;;
73515;SDS011;61763;51.416;5.442;2024-03-23T15:23:28;2.63;;;0.65;;
73515;SDS011;61763;51.416;5.442;2024-03-23T15:25:54;2.83;;;0.77;;
73515;SDS011;61763;51.416;5.442;2024-03-23T15:28:21;5.35;;;0.55;;
73515;SDS011;61763;51.416;5.442;2024-03-23T15:30:47;3.15;;;0.82;;
73515;SDS011;61763;51.416;5.442;2024-03-23T15:33:13;1.33;;;0.30;;
73515;SDS011;61763;51.416;5.442;2024-03-23T15:35:38;2.80;;;0.20;;
73515;SDS011;61763;51.416;5.442;2024-03-23T15:38:03;1.38;;;0.40;;
73515;SDS011;61763;51.416;5.442;2024-03-23T15:40:29;1.63;;;0.20;;
73515;SDS011;61763;51.416;5.442;2024-03-23T15:42:54;1.92;;;0.38;;
73515;SDS011;61763;51.416;5.442;2024-03-23T15:45:19;3.35;;;0.10;;
73515;SDS011;61763;51.416;5.442;2024-03-23T15:47:45;2.47;;;0.40;;
73515;SDS011;61763;51.416;5.442;2024-03-23T15:50:10;1.60;;;0.70;;
73515;SDS011;61763;51.416;5.442;2024-03-23T15:52:36;1.73;;;0.25;;
73515;SDS011;61763;51.416;5.442;2024-03-23T15:55:04;2.53;;;0.40;;
73515;SDS011;61763;51.416;5.442;2024-03-23T15:57:35;0.95;;;0.22;;